»·PEaware :: N49LP KPWT-CYXX

N49LP :: KPWT-CYXX

FLIGHT INFORMATION

Flight Status: Arrived
Operator: Privately registered:
United States
More flights under this callsign
Pilot: Les P. (123)
Aircraft: BEECH AIRCRAFT BONANZA
(BE35)
More flights by this aircraft type
Origin: KPWT Bremerton Natl
United States
Destination: CYXX Abbotsford
Canada
More flights between these airports :: More routes between these airports
Route: +CARRO V165 DIGGN V495 HUH
File this flight plan on PilotEdge
Remarks:
Altitude:
(Current/Filed)
8,000ft
Speed:
(Current/Filed)
165kts
Departed: 20-Oct-20 03:01 PM
Arrived: 20-Oct-20 04:02 PM
Distance/Time
Traveled:
93nm/1:01
Distance/Time
To Go:
Arrived

Flight Plot

Page will automatically refresh every two minutes.

Flight plan parsing failed; only flown route is shown


Map Options




Map Legend


Flown Route
Filed Route
Departure Airport
Arrival Airport
Navaid (VOR, NDB)
Fix

Horizontal Profiles

Position Reports

Time Latitude Longitude Heading Altitude Ground
Speed
20-Oct-20 14:19 47.493803 -122.764159 302 442ft 0kts
20-Oct-20 14:20 47.493803 -122.764159 302 442ft 0kts
20-Oct-20 14:21 47.493803 -122.764159 302 442ft 0kts
20-Oct-20 14:22 47.493803 -122.764159 302 442ft 0kts
20-Oct-20 14:23 47.493803 -122.764159 302 442ft 0kts
20-Oct-20 14:24 47.493803 -122.764159 302 442ft 0kts
20-Oct-20 14:25 47.493803 -122.764159 302 442ft 0kts
20-Oct-20 14:26 47.493803 -122.764159 302 442ft 0kts
20-Oct-20 14:26 47.493803 -122.764159 302 442ft 0kts
20-Oct-20 14:28 47.493803 -122.764159 302 442ft 0kts
20-Oct-20 14:28 47.493803 -122.764159 302 442ft 0kts
20-Oct-20 14:30 47.493803 -122.764159 302 442ft 0kts
20-Oct-20 14:30 47.493803 -122.764159 302 442ft 0kts
20-Oct-20 14:31 47.493803 -122.764159 302 442ft 0kts
20-Oct-20 14:32 47.493803 -122.764159 302 442ft 0kts
20-Oct-20 14:33 47.493803 -122.764160 302 442ft 0kts
20-Oct-20 14:34 47.493804 -122.764162 302 442ft 0kts
20-Oct-20 14:35 47.493805 -122.764166 302 442ft 0kts
20-Oct-20 14:36 47.493807 -122.764169 302 442ft 0kts
20-Oct-20 14:37 47.493808 -122.764172 302 442ft 0kts
20-Oct-20 14:38 47.493810 -122.764175 302 442ft 0kts
20-Oct-20 14:39 47.493811 -122.764179 302 442ft 0kts
20-Oct-20 14:40 47.493812 -122.764182 302 442ft 0kts
20-Oct-20 14:41 47.493814 -122.764185 302 442ft 0kts
20-Oct-20 14:42 47.493815 -122.764189 302 442ft 0kts
20-Oct-20 14:43 47.493817 -122.764192 302 442ft 0kts
20-Oct-20 14:44 47.493818 -122.764195 302 442ft 0kts
20-Oct-20 14:45 47.493820 -122.764199 302 442ft 0kts
20-Oct-20 14:46 47.493821 -122.764202 302 442ft 0kts
20-Oct-20 14:47 47.493823 -122.764205 302 442ft 0kts
20-Oct-20 14:48 47.493824 -122.764208 302 442ft 0kts
20-Oct-20 14:49 47.493825 -122.764212 302 442ft 0kts
20-Oct-20 14:50 47.493827 -122.764215 302 442ft 0kts
20-Oct-20 14:51 47.493828 -122.764218 302 442ft 0kts
20-Oct-20 14:52 47.493830 -122.764222 302 442ft 0kts
20-Oct-20 14:53 47.493831 -122.764225 302 442ft 0kts
20-Oct-20 14:54 47.493833 -122.764228 302 442ft 0kts
20-Oct-20 14:55 47.494466 -122.762763 34 442ft 11kts
20-Oct-20 14:56 47.497580 -122.759291 127 442ft 3kts
20-Oct-20 14:57 47.497570 -122.759273 127 442ft 0kts
20-Oct-20 14:58 47.497567 -122.759268 127 442ft 0kts
20-Oct-20 14:59 47.497540 -122.759213 122 442ft 0kts
20-Oct-20 15:00 47.489077 -122.765992 212 528ft 94kts
20-Oct-20 15:01 47.460928 -122.781074 191 1470ft 116kts
20-Oct-20 15:02 47.430667 -122.790257 196 2452ft 111kts
20-Oct-20 15:03 47.400613 -122.780761 193 3140ft 118kts
20-Oct-20 15:04 47.401104 -122.813414 348 4000ft 115kts
20-Oct-20 15:05 47.425028 -122.783555 15 4607ft 129kts
20-Oct-20 15:06 47.451025 -122.803277 307 5637ft 92kts
20-Oct-20 15:07 47.470612 -122.818893 33 6521ft 93kts
20-Oct-20 15:08 47.491542 -122.796462 6 7208ft 92kts
20-Oct-20 15:09 47.517658 -122.792558 354 7930ft 101kts
20-Oct-20 15:10 47.553561 -122.790227 357 7983ft 145kts
20-Oct-20 15:11 47.595092 -122.787542 357 7977ft 150kts
20-Oct-20 15:12 47.637032 -122.785040 357 7982ft 152kts
20-Oct-20 15:13 47.679376 -122.782538 357 7976ft 152kts
20-Oct-20 15:14 47.721571 -122.780035 357 7973ft 150kts
20-Oct-20 15:15 47.763596 -122.777574 357 7975ft 152kts
20-Oct-20 15:16 47.805934 -122.775062 357 7984ft 152kts
20-Oct-20 15:17 47.848328 -122.772534 357 7976ft 151kts
20-Oct-20 15:18 47.890234 -122.770003 358 7980ft 150kts
20-Oct-20 15:19 47.932123 -122.767544 357 7973ft 150kts
20-Oct-20 15:20 47.973936 -122.765056 357 7980ft 150kts
20-Oct-20 15:21 48.008049 -122.788272 310 7988ft 142kts
20-Oct-20 15:22 48.036212 -122.829743 305 7993ft 143kts
20-Oct-20 15:23 48.066914 -122.867735 326 7993ft 146kts
20-Oct-20 15:24 48.101975 -122.899022 325 7985ft 147kts
20-Oct-20 15:25 48.136854 -122.931138 325 7985ft 146kts
20-Oct-20 15:26 48.171478 -122.963194 325 7996ft 146kts
20-Oct-20 15:27 48.206076 -122.995269 325 8007ft 146kts
20-Oct-20 15:28 48.240713 -123.027426 325 8000ft 147kts
20-Oct-20 15:29 48.275444 -123.059714 325 7992ft 146kts
20-Oct-20 15:30 48.310203 -123.092083 325 7996ft 147kts
20-Oct-20 15:31 48.345111 -123.124647 325 7990ft 147kts
20-Oct-20 15:32 48.380005 -123.157247 325 7989ft 147kts
20-Oct-20 15:33 48.414899 -123.189902 325 7989ft 147kts
20-Oct-20 15:34 48.449781 -123.222595 324 7986ft 147kts
20-Oct-20 15:35 48.484559 -123.255269 324 7983ft 147kts
20-Oct-20 15:36 48.519508 -123.288152 324 7987ft 147kts
20-Oct-20 15:37 48.554296 -123.320901 324 7987ft 147kts
20-Oct-20 15:38 48.589066 -123.353708 324 7991ft 147kts
20-Oct-20 15:39 48.623961 -123.386693 324 7981ft 148kts
20-Oct-20 15:40 48.658986 -123.419858 324 7983ft 150kts
20-Oct-20 15:41 48.694321 -123.453359 324 7976ft 148kts
20-Oct-20 15:42 48.731917 -123.460142 45 7978ft 161kts
20-Oct-20 15:43 48.748201 -123.396115 67 7976ft 163kts
20-Oct-20 15:44 48.764438 -123.331671 67 7980ft 163kts
20-Oct-20 15:45 48.780228 -123.267184 68 7984ft 163kts
20-Oct-20 15:46 48.796036 -123.202244 68 7975ft 164kts
20-Oct-20 15:47 48.811896 -123.136841 68 7895ft 167kts
20-Oct-20 15:48 48.828262 -123.069035 68 7307ft 171kts
20-Oct-20 15:49 48.844875 -123.000199 69 6474ft 178kts
20-Oct-20 15:50 48.861444 -122.931196 70 5360ft 170kts
20-Oct-20 15:51 48.877358 -122.864766 70 4235ft 164kts
20-Oct-20 15:52 48.891380 -122.806179 70 4001ft 138kts
20-Oct-20 15:53 48.904916 -122.749460 70 4003ft 145kts
20-Oct-20 15:54 48.918750 -122.691226 70 4008ft 146kts
20-Oct-20 15:55 48.936922 -122.636769 35 4001ft 147kts
20-Oct-20 15:56 48.970037 -122.595835 39 3610ft 162kts
20-Oct-20 15:57 49.004335 -122.552950 39 2627ft 154kts
20-Oct-20 15:58 49.012476 -122.507038 101 2285ft 140kts
20-Oct-20 15:59 49.017089 -122.446815 88 1301ft 139kts
20-Oct-20 16:00 49.018671 -122.393341 90 562ft 107kts
20-Oct-20 16:01 49.020022 -122.359224 79 193ft 33kts
20-Oct-20 16:02 49.021179 -122.358465 328 193ft 0kts
20-Oct-20 16:03 49.018916 -122.387157 90 434ft 103kts
20-Oct-20 16:04 49.020289 -122.357781 39 193ft 16kts
20-Oct-20 16:05 49.021452 -122.358708 326 193ft 5kts
20-Oct-20 16:06 49.023427 -122.360863 325 193ft 9kts
20-Oct-20 16:07 49.023504 -122.360945 324 193ft 0kts
20-Oct-20 16:08 49.025005 -122.362418 328 193ft 14kts
20-Oct-20 16:10 49.026783 -122.363216 322 193ft 1kts
20-Oct-20 16:11 49.026806 -122.363245 322 193ft 0kts
20-Oct-20 16:12 49.026806 -122.363245 322 193ft 0kts
20-Oct-20 16:13 49.026799 -122.363236 322 193ft 0kts
20-Oct-20 16:14 49.026799 -122.363236 322 193ft 0kts

Navigation Log

Ident Type
Flight plan parsing failed, navigation log unavailable